Time;durP1;ratioP1;P1;durP2;ratioP2;P2;SDS_P1;SDS_P2;PMS_P1;PMS_P2;Temp;Humidity;BMP_temperature;BMP_pressure;BME280_temperature;BME280_humidity;BME280_pressure;Samples;Min_cycle;Max_cycle;Signal;HPM_P1;HPM_P2
2022/12/02 00:01:20;;;;;;;16.15;5.10;;;153.60;2252.80;;;;;;5031997;28;20393;-81
2022/12/02 00:03:46;;;;;;;;;;;153.60;2252.80;;;;;;5003611;28;20026;-81
2022/12/02 00:06:24;;;;;;;6.55;4.13;;;153.60;2252.80;;;;;;5015306;28;19909;-82
2022/12/02 00:08:50;;;;;;;7.13;3.78;;;128.90;2252.80;;;;;;4996156;28;20026;-81
2022/12/02 00:11:25;;;;;;;;;;;128.90;2252.80;;;;;;5012701;28;20022;-81
2022/12/02 00:13:51;;;;;;;6.38;3.45;;;128.90;2252.80;;;;;;5001880;28;19952;-80
2022/12/02 00:16:21;;;;;;;;;;;128.90;2252.80;;;;;;5020817;28;20053;-78
2022/12/02 00:18:47;;;;;;;5.88;3.55;;;128.90;2252.80;;;;;;5025924;28;20417;-81
2022/12/02 00:21:12;;;;;;;;;;;128.90;2252.80;;;;;;5007279;28;20040;-80
2022/12/02 00:23:38;;;;;;;6.45;3.58;;;128.90;2252.80;;;;;;5011499;28;20008;-82
2022/12/02 00:26:04;;;;;;;;;;;128.90;2252.80;;;;;;5012474;28;20053;-78
2022/12/02 00:28:29;;;;;;;5.53;3.00;;;128.90;2252.80;;;;;;5012753;28;19912;-80
2022/12/02 00:30:55;;;;;;;;;;;128.90;2252.80;;;;;;5003119;28;20025;-81
2022/12/02 00:33:20;;;;;;;5.63;3.35;;;128.90;2252.80;;;;;;5015106;28;20367;-82
2022/12/02 00:35:46;;;;;;;;;;;128.80;2252.80;;;;;;5015199;28;20029;-78
2022/12/02 00:38:12;;;;;;;5.28;3.20;;;128.80;2252.80;;;;;;5033151;28;20246;-81
2022/12/02 00:40:37;;;;;;;;;;;128.90;2252.80;;;;;;5019191;28;20036;-80
2022/12/02 00:48:32;;;;;;;5.13;2.67;;;128.90;2252.80;;;;;;5017114;28;20544;-80
2022/12/02 00:50:58;;;;;;;5.43;3.17;;;128.90;2252.80;;;;;;5013165;28;20120;-79
2022/12/02 00:53:24;;;;;;;;;;;128.90;2252.80;;;;;;5005450;28;20493;-78
2022/12/02 00:55:49;;;;;;;5.13;3.15;;;153.60;2252.80;;;;;;5019084;28;19951;-80
2022/12/02 00:58:15;;;;;;;;;;;128.90;2252.80;;;;;;5019004;28;20018;-80
2022/12/02 01:00:41;;;;;;;4.35;2.60;;;153.60;2252.80;;;;;;5036730;28;19978;-81
2022/12/02 01:03:07;;;;;;;;;;;153.60;2252.80;;;;;;5003152;28;20439;-81
2022/12/02 01:05:32;;;;;;;6.30;3.25;;;153.60;2252.80;;;;;;5016182;28;19910;-80
2022/12/02 01:07:58;;;;;;;;;;;153.60;2252.80;;;;;;5012952;28;20045;-81
2022/12/02 01:10:23;;;;;;;4.93;2.70;;;153.60;2252.80;;;;;;5015863;28;20007;-79
2022/12/02 01:12:49;;;;;;;;;;;153.60;2252.80;;;;;;5011277;28;20025;-80
2022/12/02 01:15:15;;;;;;;4.93;2.58;;;153.60;2252.80;;;;;;5018510;28;20383;-79
2022/12/02 01:17:40;;;;;;;;;;;128.90;2252.80;;;;;;5028889;28;20039;-81
2022/12/02 01:20:07;;;;;;;4.25;2.47;;;153.60;2252.80;;;;;;5018100;28;20323;-80
2022/12/02 01:22:32;;;;;;;5.88;3.08;;;153.60;2252.80;;;;;;5018645;28;20033;-78
2022/12/02 01:24:58;;;;;;;;;;;153.60;2252.80;;;;;;5035050;28;20093;-79
2022/12/02 01:27:24;;;;;;;6.32;2.55;;;153.60;2252.80;;;;;;5015094;28;19906;-81
2022/12/02 01:29:49;;;;;;;;;;;128.90;2252.80;;;;;;5010873;28;20032;-79
2022/12/02 01:32:15;;;;;;;7.63;2.70;;;128.90;2252.80;;;;;;5020200;28;19909;-79
2022/12/02 01:34:41;;;;;;;;;;;128.90;2252.80;;;;;;5028598;28;20463;-80
2022/12/02 01:37:07;;;;;;;5.07;3.13;;;128.90;2252.80;;;;;;5016234;28;19905;-81
2022/12/02 01:39:33;;;;;;;4.57;2.70;;;128.80;2252.80;;;;;;5022757;28;20022;-81
2022/12/02 01:41:59;;;;;;;;;;;128.90;2252.80;;;;;;5018515;28;20120;-81
2022/12/02 01:44:25;;;;;;;3.53;2.38;;;128.80;2252.80;;;;;;5015815;28;19905;-79
2022/12/02 01:46:50;;;;;;;;;;;128.90;2252.80;;;;;;4998783;28;20466;-79
2022/12/02 01:49:16;;;;;;;4.70;2.72;;;128.90;2252.80;;;;;;5016214;28;19906;-78
2022/12/02 01:51:42;;;;;;;5.28;3.72;;;128.90;2252.80;;;;;;5004469;28;20030;-78
2022/12/02 01:54:08;;;;;;;;;;;128.90;2252.80;;;;;;5018087;28;20041;-82
2022/12/02 01:56:34;;;;;;;7.40;2.78;;;128.80;2252.80;;;;;;5033824;28;20328;-80
2022/12/02 01:59:00;;;;;;;5.13;2.75;;;128.80;2252.80;;;;;;5027193;28;20478;-81
2022/12/02 02:01:27;;;;;;;;;;;128.80;2252.80;;;;;;5014825;28;20072;-81
2022/12/02 02:03:53;;;;;;;4.38;2.20;;;128.80;2252.80;;;;;;5014217;28;19913;-81
2022/12/02 02:06:19;;;;;;;;;;;128.80;2252.80;;;;;;5011582;28;20103;-81
2022/12/02 02:08:45;;;;;;;4.30;2.72;;;128.80;2252.80;;;;;;5017770;28;19905;-81
2022/12/02 02:11:10;;;;;;;;;;;128.80;2252.80;;;;;;5018016;28;20162;-79
2022/12/02 02:13:36;;;;;;;5.70;3.15;;;128.80;2252.80;;;;;;5017551;28;19909;-81
2022/12/02 02:16:02;;;;;;;;;;;128.70;2252.80;;;;;;5017822;28;20462;-80
2022/12/02 02:18:28;;;;;;;4.30;2.50;;;128.70;2252.80;;;;;;5014974;28;20023;-81
2022/12/02 02:20:55;;;;;;;;;;;128.80;2252.80;;;;;;5006615;28;20061;-81
2022/12/02 02:23:22;;;;;;;;;;;128.70;2252.80;;;;;;5017740;28;19909;-81
2022/12/02 02:25:50;;;;;;;;;;;128.70;2252.80;;;;;;5018112;28;19905;-81
2022/12/02 02:28:16;;;;;;;5.35;3.33;;;128.60;2252.80;;;;;;5033990;28;19905;-80
2022/12/02 02:30:42;;;;;;;;;;;128.60;2252.80;;;;;;5016024;28;20029;-79
2022/12/02 02:33:10;;;;;;;4.00;2.55;;;128.60;2252.80;;;;;;5013409;28;19906;-78
2022/12/02 02:35:38;;;;;;;6.28;3.55;;;128.60;2252.80;;;;;;5014800;28;20037;-81
2022/12/02 02:38:07;;;;;;;5.88;3.20;;;128.70;2252.80;;;;;;5016890;28;20048;-81
2022/12/02 02:40:33;;;;;;;6.40;3.90;;;128.70;2252.80;;;;;;5019988;28;20034;-78
2022/12/02 02:43:00;;;;;;;;;;;128.80;2252.80;;;;;;5034644;28;20079;-81
2022/12/02 02:45:27;;;;;;;;;;;128.80;2252.80;;;;;;5017452;28;20004;-80
2022/12/02 02:47:54;;;;;;;6.88;3.58;;;128.80;2252.80;;;;;;5034760;28;19913;-81
2022/12/02 02:50:22;;;;;;;6.15;3.50;;;128.80;2252.80;;;;;;5025372;28;20026;-82
2022/12/02 02:52:48;;;;;;;5.90;3.30;;;128.90;2252.80;;;;;;5010081;28;20042;-79
2022/12/02 02:55:18;;;;;;;5.63;3.38;;;128.90;2252.80;;;;;;5017431;28;20033;-82
2022/12/02 02:57:44;;;;;;;7.18;4.35;;;153.60;2252.80;;;;;;5016907;28;20021;-81
2022/12/02 03:00:10;;;;;;;;;;;153.60;2252.80;;;;;;4997184;28;20042;-82
2022/12/02 03:02:36;;;;;;;8.77;4.32;;;128.90;2252.80;;;;;;5012441;28;19913;-80
2022/12/02 03:05:04;;;;;;;7.22;4.07;;;128.90;2252.80;;;;;;5017033;28;20037;-79
2022/12/02 03:07:30;;;;;;;6.75;3.83;;;128.90;2252.80;;;;;;5015971;28;20026;-81
2022/12/02 03:09:55;;;;;;;;;;;128.90;2252.80;;;;;;5015926;28;20034;-84
2022/12/02 03:12:21;;;;;;;9.13;5.03;;;128.90;2252.80;;;;;;5016217;28;20396;-81
2022/12/02 03:14:47;;;;;;;;;;;153.60;2252.80;;;;;;5032986;28;20030;-80
2022/12/02 03:17:13;;;;;;;5.60;3.80;;;128.90;2252.80;;;;;;5017483;28;19909;-81
2022/12/02 03:19:40;;;;;;;6.50;3.83;;;128.90;2252.80;;;;;;5016272;28;20030;-82
2022/12/02 03:22:06;;;;;;;;;;;128.90;2252.80;;;;;;5033350;28;20025;-81
2022/12/02 03:24:32;;;;;;;4.70;2.58;;;153.60;2252.80;;;;;;5032899;28;19980;-81
2022/12/02 03:26:59;;;;;;;6.57;3.28;;;128.90;2252.80;;;;;;5017690;28;20053;-80
2022/12/02 03:29:27;;;;;;;7.38;3.83;;;128.80;2252.80;;;;;;5004948;28;20083;-81
2022/12/02 03:31:53;;;;;;;7.20;3.83;;;128.90;2252.80;;;;;;5015742;28;20026;-80
2022/12/02 03:34:19;;;;;;;7.00;3.85;;;128.90;2252.80;;;;;;5015870;28;20044;-78
2022/12/02 03:36:45;;;;;;;;;;;128.90;2252.80;;;;;;5021302;28;20022;-81
2022/12/02 03:39:11;;;;;;;6.88;3.30;;;128.90;2252.80;;;;;;5015344;28;19909;-80
2022/12/02 03:41:37;;;;;;;;;;;128.90;2252.80;;;;;;5016052;28;20029;-78
2022/12/02 03:44:03;;;;;;;5.97;3.63;;;128.90;2252.80;;;;;;5022368;28;20023;-81
2022/12/02 03:46:29;;;;;;;;;;;128.90;2252.80;;;;;;5016082;28;20045;-81
2022/12/02 03:48:56;;;;;;;6.32;3.58;;;128.90;2252.80;;;;;;5024314;28;19969;-82
2022/12/02 03:51:22;;;;;;;7.82;3.80;;;128.90;2252.80;;;;;;5015116;28;20116;-78
2022/12/02 03:53:47;;;;;;;;;;;128.90;2252.80;;;;;;5016027;28;20180;-78
2022/12/02 03:56:13;;;;;;;10.57;4.20;;;128.90;2252.80;;;;;;5031805;28;19905;-77
2022/12/02 03:58:44;;;;;;;;;;;153.60;2252.80;;;;;;5020744;28;20124;-81
2022/12/02 04:01:10;;;;;;;7.97;4.03;;;128.90;2252.80;;;;;;5019487;28;20379;-81
2022/12/02 04:03:35;;;;;;;;;;;128.90;2252.80;;;;;;5013089;28;20053;-81
2022/12/02 04:06:01;;;;;;;7.50;4.15;;;128.90;2252.80;;;;;;5012512;28;19921;-81
2022/12/02 04:08:26;;;;;;;;;;;128.90;2252.80;;;;;;5013760;28;20022;-81
2022/12/02 04:10:52;;;;;;;7.05;3.42;;;128.90;2252.80;;;;;;5016153;28;19940;-81
2022/12/02 04:13:18;;;;;;;;;;;128.90;2252.80;;;;;;5017639;28;20081;-80
2022/12/02 04:15:44;;;;;;;8.38;3.50;;;128.90;2252.80;;;;;;5013243;28;20381;-80
2022/12/02 04:18:09;;;;;;;;;;;128.90;2252.80;;;;;;5027212;28;20109;-78
2022/12/02 04:20:35;;;;;;;5.88;3.50;;;128.90;2252.80;;;;;;5014654;28;19967;-81
2022/12/02 04:23:00;;;;;;;;;;;153.60;2252.80;;;;;;5033081;28;20378;-78
2022/12/02 04:25:27;;;;;;;7.45;3.25;;;128.90;2252.80;;;;;;5015234;28;19932;-79
2022/12/02 04:27:52;;;;;;;8.30;4.20;;;128.90;2252.80;;;;;;5015132;28;20022;-78
2022/12/02 04:30:18;;;;;;;;;;;153.60;2252.80;;;;;;5013508;28;20386;-81
2022/12/02 04:32:44;;;;;;;6.97;3.85;;;153.60;2252.80;;;;;;5013224;28;20321;-80
2022/12/02 04:35:09;;;;;;;;;;;128.90;2252.80;;;;;;5010021;28;20034;-80
2022/12/02 04:37:35;;;;;;;6.47;3.28;;;153.60;2252.80;;;;;;5013142;28;19988;-81
2022/12/02 04:40:01;;;;;;;;;;;153.60;2252.80;;;;;;5012258;28;20130;-81
2022/12/02 04:42:26;;;;;;;8.48;4.38;;;153.60;2252.80;;;;;;5025965;28;19905;-81
2022/12/02 04:44:52;;;;;;;;;;;153.60;2252.80;;;;;;5001281;28;20056;-78
2022/12/02 04:47:18;;;;;;;5.80;3.30;;;153.60;2252.80;;;;;;5015092;28;20262;-81
2022/12/02 04:49:43;;;;;;;;;;;128.90;2252.80;;;;;;5031482;28;20084;-78
2022/12/02 04:52:09;;;;;;;5.13;3.22;;;128.90;2252.80;;;;;;5031414;28;19931;-81
2022/12/02 04:54:34;;;;;;;;;;;128.90;2252.80;;;;;;5018373;28;20037;-81
2022/12/02 04:57:00;;;;;;;5.13;3.10;;;153.60;2252.80;;;;;;5015044;28;19912;-81
2022/12/02 04:59:26;;;;;;;;;;;153.60;2252.80;;;;;;5018267;28;20029;-81
2022/12/02 05:01:51;;;;;;;4.75;2.92;;;128.90;2252.80;;;;;;5018612;28;19917;-78
2022/12/02 05:04:17;;;;;;;;;;;153.70;2252.80;;;;;;5020126;28;20491;-81
2022/12/02 05:06:43;;;;;;;6.60;3.15;;;153.60;2252.80;;;;;;5014810;28;20320;-80
2022/12/02 05:09:08;;;;;;;;;;;153.60;2252.80;;;;;;5023431;28;20490;-81
2022/12/02 05:11:34;;;;;;;7.25;3.05;;;153.60;2252.80;;;;;;5012091;28;19945;-80
2022/12/02 05:13:59;;;;;;;;;;;128.90;2252.80;;;;;;5012038;28;20018;-78
2022/12/02 05:16:25;;;;;;;6.13;3.95;;;153.60;2252.80;;;;;;5014156;28;19909;-79
2022/12/02 05:18:51;;;;;;;;;;;153.60;2252.80;;;;;;5013218;28;20042;-80
2022/12/02 05:21:16;;;;;;;5.07;2.92;;;153.60;2252.80;;;;;;5012391;28;19959;-81
2022/12/02 05:23:42;;;;;;;;;;;128.90;2252.80;;;;;;5011866;28;20026;-78
2022/12/02 05:26:08;;;;;;;10.68;3.70;;;128.90;2252.80;;;;;;5012297;28;19905;-81
2022/12/02 05:28:33;;;;;;;;;;;128.90;2252.80;;;;;;5028449;28;20432;-81
2022/12/02 05:30:59;;;;;;;5.30;3.03;;;128.90;2252.80;;;;;;5014829;28;19991;-81
2022/12/02 05:33:24;;;;;;;;;;;128.80;2252.80;;;;;;5031549;28;20074;-78
2022/12/02 05:35:50;;;;;;;5.55;3.38;;;128.80;2252.80;;;;;;5015669;28;19910;-81
2022/12/02 05:38:16;;;;;;;;;;;128.90;2252.80;;;;;;5027129;28;20032;-81
2022/12/02 05:40:41;;;;;;;13.68;4.10;;;153.60;2252.80;;;;;;5018361;28;19987;-79
2022/12/02 05:43:16;;;;;;;;;;;153.70;2252.80;;;;;;5018392;28;20021;-81
2022/12/02 05:45:42;;;;;;;7.00;3.78;;;153.60;2252.80;;;;;;5035726;28;19909;-80
2022/12/02 05:48:15;;;;;;;9.82;4.57;;;128.90;2252.80;;;;;;5030506;28;20433;-80
2022/12/02 05:50:42;;;;;;;7.95;4.80;;;128.90;2252.80;;;;;;5014862;28;20041;-81
2022/12/02 05:53:26;;;;;;;23.10;4.60;;;153.60;2252.80;;;;;;5015414;28;20485;-82
2022/12/02 05:55:53;;;;;;;9.75;5.00;;;128.90;2252.80;;;;;;5017839;28;20112;-81
2022/12/02 05:58:19;;;;;;;11.38;6.68;;;128.90;2252.80;;;;;;5034404;28;20378;-78
2022/12/02 06:00:55;;;;;;;12.30;5.85;;;128.90;2252.80;;;;;;5024611;28;20034;-81
2022/12/02 06:03:21;;;;;;;10.35;5.25;;;128.90;2252.80;;;;;;5016119;28;20034;-81
2022/12/02 06:05:47;;;;;;;;;;;128.90;2252.80;;;;;;5035142;28;20060;-81
2022/12/02 06:08:17;;;;;;;8.55;4.18;;;128.80;2252.80;;;;;;5031819;28;19905;-81
2022/12/02 06:10:50;;;;;;;9.77;4.70;;;128.80;2252.80;;;;;;5026877;28;20590;-81
2022/12/02 06:13:40;;;;;;;12.75;5.45;;;128.80;2252.80;;;;;;5037488;28;20018;-80
2022/12/02 06:16:12;;;;;;;7.72;4.53;;;128.80;2252.80;;;;;;5008421;28;20061;-78
2022/12/02 06:18:38;;;;;;;7.07;4.40;;;128.80;2252.80;;;;;;5017223;28;20033;-78
2022/12/02 06:21:12;;;;;;;7.88;4.72;;;128.80;2252.80;;;;;;5033588;28;20110;-77
2022/12/02 06:23:50;;;;;;;8.63;4.35;;;128.80;2252.80;;;;;;5030613;28;20025;-81
2022/12/02 06:26:18;;;;;;;9.32;4.68;;;128.80;2252.80;;;;;;5014220;28;20033;-81
2022/12/02 06:28:46;;;;;;;7.95;4.57;;;128.80;2252.80;;;;;;5014498;28;20026;-81
2022/12/02 06:31:15;;;;;;;9.18;4.82;;;128.80;2252.80;;;;;;5006809;28;20026;-78
2022/12/02 06:33:42;;;;;;;7.03;4.00;;;128.80;2252.80;;;;;;5014928;28;20022;-81
2022/12/02 06:36:17;;;;;;;8.02;4.70;;;128.80;2252.80;;;;;;5005387;28;20030;-81
2022/12/02 06:39:14;;;;;;;8.90;4.47;;;128.90;2252.80;;;;;;5015228;28;20037;-80
2022/12/02 06:41:40;;;;;;;7.95;3.65;;;128.80;2252.80;;;;;;5008474;28;20474;-78
2022/12/02 06:47:01;;;;;;;6.90;4.22;;;128.80;2252.80;;;;;;5015339;28;20357;-81
2022/12/02 06:49:36;;;;;;;11.55;5.05;;;128.80;2252.80;;;;;;5015094;28;20026;-82
2022/12/02 06:52:15;;;;;;;8.75;4.65;;;128.90;2252.80;;;;;;5023767;28;20079;-81
2022/12/02 06:54:43;;;;;;;7.47;4.47;;;128.90;2252.80;;;;;;5014244;28;20049;-81
2022/12/02 06:57:09;;;;;;;10.05;4.80;;;128.90;2252.80;;;;;;5005852;28;20034;-82
2022/12/02 06:59:35;;;;;;;10.77;4.68;;;128.90;2252.80;;;;;;5016974;28;20060;-81
2022/12/02 07:02:01;;;;;;;;;;;128.90;2252.80;;;;;;5017018;28;20099;-82
2022/12/02 07:04:35;;;;;;;7.88;4.60;;;128.90;2252.80;;;;;;5017200;28;19909;-79
2022/12/02 07:07:16;;;;;;;6.30;4.20;;;153.60;2252.80;;;;;;5032808;28;20478;-78
2022/12/02 07:09:54;;;;;;;8.40;4.57;;;153.60;2252.80;;;;;;5020733;28;20527;-79
2022/12/02 07:12:30;;;;;;;8.38;4.65;;;153.60;2252.80;;;;;;5004842;28;20047;-78
2022/12/02 07:14:58;;;;;;;6.93;4.13;;;153.70;2252.80;;;;;;5031105;28;20032;-78
2022/12/02 07:17:34;;;;;;;12.25;5.53;;;153.70;2252.80;;;;;;5012957;28;20487;-80
2022/12/02 07:20:06;;;;;;;4.53;2.97;;;153.80;2252.80;;;;;;5012018;28;20124;-80
2022/12/02 07:22:53;;;;;;;8.40;4.47;;;153.80;2252.80;;;;;;5032459;28;20072;-84
2022/12/02 07:25:41;;;;;;;6.13;4.28;;;153.80;2252.80;;;;;;5019193;28;20079;-81
2022/12/02 07:28:22;;;;;;;6.75;4.22;;;153.90;2252.80;;;;;;5024114;28;20532;-83
2022/12/02 07:31:21;;;;;;;9.07;4.43;;;153.80;2252.80;;;;;;5015847;28;20029;-80
2022/12/02 07:33:47;;;;;;;7.22;4.15;;;153.80;2252.80;;;;;;4972737;28;20109;-79
2022/12/02 07:36:13;;;;;;;7.47;4.35;;;153.80;2252.80;;;;;;4973757;28;20034;-84
2022/12/02 07:38:39;;;;;;;;;;;153.90;2252.80;;;;;;4970557;28;20043;-79
2022/12/02 07:41:05;;;;;;;9.45;4.45;;;153.90;2252.80;;;;;;4955925;28;19940;-84
2022/12/02 07:43:31;;;;;;;6.45;3.90;;;153.90;2252.80;;;;;;4961623;28;20022;-79
2022/12/02 07:45:57;;;;;;;;;;;153.90;2252.80;;;;;;4973238;28;20125;-79
2022/12/02 07:48:23;;;;;;;7.15;4.25;;;154.00;2252.80;;;;;;4973341;28;20025;-81
2022/12/02 07:50:48;;;;;;;;;;;154.00;2252.80;;;;;;4970151;28;20031;-84
2022/12/02 07:53:14;;;;;;;7.70;3.70;;;154.10;2252.80;;;;;;4955989;28;19929;-86
2022/12/02 07:55:40;;;;;;;;;;;154.00;2252.80;;;;;;4970151;28;20032;-81
2022/12/02 07:58:06;;;;;;;6.40;3.90;;;154.10;2252.80;;;;;;4954357;28;19906;-84
2022/12/02 08:00:31;;;;;;;;;;;154.00;2252.80;;;;;;4962357;28;20039;-81
2022/12/02 08:02:57;;;;;;;6.03;3.30;;;154.20;2252.80;;;;;;4972292;28;20502;-79
2022/12/02 08:05:23;;;;;;;;;;;154.10;2252.80;;;;;;4972864;28;20061;-83
2022/12/02 08:07:49;;;;;;;7.00;3.17;;;154.10;2252.80;;;;;;4965398;28;19913;-79
2022/12/02 08:10:15;;;;;;;5.07;3.47;;;154.10;2252.80;;;;;;4989215;28;20029;-80
2022/12/02 08:12:41;;;;;;;5.57;3.38;;;154.20;2252.80;;;;;;5005980;28;20037;-82
2022/12/02 08:15:09;;;;;;;5.97;2.75;;;154.20;2252.80;;;;;;5015292;28;20021;-82
2022/12/02 08:17:35;;;;;;;10.95;2.97;;;154.20;2252.80;;;;;;5015361;28;20061;-80
2022/12/02 08:20:01;;;;;;;;;;;154.20;2252.80;;;;;;5033455;28;20474;-80
2022/12/02 08:22:27;;;;;;;15.15;6.45;;;154.30;2252.80;;;;;;5015596;28;19912;-80
2022/12/02 08:24:54;;;;;;;;;;;154.20;2252.80;;;;;;5015460;28;20128;-80
2022/12/02 08:27:20;;;;;;;3.80;2.20;;;154.30;2252.80;;;;;;5025692;28;19909;-84
2022/12/02 08:29:48;;;;;;;5.82;3.67;;;154.20;2252.80;;;;;;5011319;28;20087;-84
2022/12/02 08:32:15;;;;;;;4.47;2.58;;;154.20;2252.80;;;;;;5012394;28;20105;-88
2022/12/02 08:34:41;;;;;;;5.72;2.60;;;154.20;2252.80;;;;;;5001736;28;20064;-84
2022/12/02 08:37:08;;;;;;;4.05;2.30;;;154.20;2252.80;;;;;;5015326;28;20021;-80
2022/12/02 08:39:34;;;;;;;3.35;2.28;;;154.20;2252.80;;;;;;5018596;28;20049;-80
2022/12/02 08:42:00;;;;;;;5.15;2.90;;;154.30;2252.80;;;;;;5015099;28;20034;-80
2022/12/02 08:44:25;;;;;;;;;;;154.20;2252.80;;;;;;5032768;28;20033;-79
2022/12/02 08:46:51;;;;;;;6.50;2.35;;;154.20;2252.80;;;;;;5015564;28;20000;-84
2022/12/02 08:49:17;;;;;;;;;;;154.20;2252.80;;;;;;5021295;28;20509;-84
2022/12/02 08:51:43;;;;;;;5.32;2.30;;;154.20;2252.80;;;;;;5015832;28;19905;-80
2022/12/02 08:54:08;;;;;;;;;;;154.30;2252.80;;;;;;5022497;28;20632;-87
2022/12/02 08:56:34;;;;;;;4.60;2.70;;;154.30;2252.80;;;;;;5014502;28;19911;-78
2022/12/02 08:59:00;;;;;;;;;;;154.50;2252.80;;;;;;5024863;28;20075;-79
2022/12/02 09:01:26;;;;;;;4.63;2.65;;;154.50;2252.80;;;;;;5032517;28;19920;-80
2022/12/02 09:03:51;;;;;;;;;;;154.50;2252.80;;;;;;5014867;28;20052;-80
2022/12/02 09:06:17;;;;;;;5.78;2.60;;;154.50;2252.80;;;;;;5020307;28;19917;-81
2022/12/02 09:08:42;;;;;;;;;;;154.50;2252.80;;;;;;5022864;28;20120;-80
2022/12/02 09:11:08;;;;;;;9.50;2.83;;;154.50;2252.80;;;;;;5018985;28;19905;-85
2022/12/02 09:13:34;;;;;;;;;;;154.50;2252.80;;;;;;5036180;28;20139;-87
2022/12/02 09:16:00;;;;;;;5.28;2.50;;;179.20;2252.80;;;;;;5035349;28;20355;-81
2022/12/02 09:18:25;;;;;;;;;;;179.20;2252.80;;;;;;5019616;28;20033;-83
2022/12/02 09:20:51;;;;;;;6.50;3.13;;;179.20;2252.80;;;;;;5036420;28;19916;-80
2022/12/02 09:23:16;;;;;;;;;;;179.30;2252.80;;;;;;5034794;28;20075;-79
2022/12/02 09:25:42;;;;;;;5.60;3.00;;;179.40;2252.80;;;;;;5018467;28;19909;-81
2022/12/02 09:28:08;;;;;;;;;;;179.40;2252.80;;;;;;5015111;28;20551;-79
2022/12/02 09:30:33;;;;;;;4.75;1.80;;;179.40;2252.80;;;;;;5012202;28;19905;-82
2022/12/02 09:32:59;;;;;;;;;;;179.40;2252.80;;;;;;5011458;28;20513;-82
2022/12/02 09:35:25;;;;;;;4.43;2.45;;;179.30;2252.80;;;;;;5023360;28;19913;-82
2022/12/02 09:37:50;;;;;;;;;;;179.30;2252.80;;;;;;5010101;28;20057;-82
2022/12/02 09:40:16;;;;;;;6.53;2.67;;;179.30;2252.80;;;;;;5016907;28;19910;-79
2022/12/02 09:42:43;;;;;;;;;;;179.20;2252.80;;;;;;5032080;28;20091;-80
2022/12/02 09:45:10;;;;;;;5.82;2.50;;;179.20;2252.80;;;;;;5034817;28;19951;-80
2022/12/02 09:47:36;;;;;;;4.93;2.03;;;179.20;2252.80;;;;;;5003354;28;20034;-85
2022/12/02 09:50:02;;;;;;;;;;;179.20;2252.80;;;;;;5004954;28;20026;-80
2022/12/02 09:52:29;;;;;;;6.15;2.75;;;179.20;2252.80;;;;;;5017366;28;19909;-86
2022/12/02 09:55:00;;;;;;;2.92;1.60;;;179.20;2252.80;;;;;;5017682;28;20026;-84
2022/12/02 09:57:31;;;;;;;2.70;1.55;;;179.20;2252.80;;;;;;5018760;28;20029;-87
2022/12/02 10:00:01;;;;;;;4.47;1.70;;;179.40;2252.80;;;;;;5035728;28;20033;-89
2022/12/02 10:02:47;;;;;;;3.38;1.73;;;179.40;2252.80;;;;;;5018154;28;20038;-90
2022/12/02 10:05:19;;;;;;;7.43;2.40;;;179.40;2252.80;;;;;;5034699;28;20028;-83
2022/12/02 10:07:47;;;;;;;3.40;1.70;;;179.40;2252.80;;;;;;5033752;28;20052;-82
2022/12/02 10:10:17;;;;;;;8.52;4.20;;;179.40;2252.80;;;;;;5033056;28;20014;-78
2022/12/02 10:12:43;;;;;;;4.10;2.55;;;179.40;2252.80;;;;;;5016758;28;20033;-78
2022/12/02 10:15:13;;;;;;;;;;;179.50;2252.80;;;;;;5031647;28;20033;-83
2022/12/02 10:17:39;;;;;;;5.43;2.72;;;179.50;2252.80;;;;;;5010564;28;19913;-79
2022/12/02 10:20:06;;;;;;;3.65;2.00;;;179.60;2252.80;;;;;;5012291;28;20079;-78
2022/12/02 10:22:32;;;;;;;4.93;2.65;;;179.60;2252.80;;;;;;5022107;28;20033;-78
2022/12/02 10:24:58;;;;;;;;;;;179.60;2252.80;;;;;;5017332;28;20026;-90
2022/12/02 10:27:25;;;;;;;6.85;3.80;;;179.60;2252.80;;;;;;5033318;28;19912;-79
2022/12/02 10:29:51;;;;;;;6.65;2.25;;;179.50;2252.80;;;;;;5033717;28;20478;-78
2022/12/02 10:32:25;;;;;;;6.82;3.58;;;179.70;2252.80;;;;;;5033501;28;20053;-80
2022/12/02 10:35:10;;;;;;;7.00;3.15;;;179.70;2252.80;;;;;;5017674;28;20536;-90
2022/12/02 10:37:37;;;;;;;6.55;3.58;;;179.70;2252.80;;;;;;5020793;28;20492;-85
2022/12/02 10:40:21;;;;;;;9.82;4.80;;;179.70;2252.80;;;;;;5046159;28;20030;-82
2022/12/02 10:43:05;;;;;;;6.00;3.13;;;179.80;2252.80;;;;;;5013640;28;20517;-87
2022/12/02 10:45:30;;;;;;;8.40;4.10;;;180.00;2252.80;;;;;;5011074;28;20029;-85
2022/12/02 10:48:09;;;;;;;;;;;179.90;2252.80;;;;;;5028382;28;20025;-80
2022/12/02 10:50:35;;;;;;;10.05;3.83;;;180.00;2252.80;;;;;;5010216;28;20373;-86
2022/12/02 10:53:01;;;;;;;;;;;180.10;2252.80;;;;;;5008727;28;20042;-83
2022/12/02 10:55:27;;;;;;;7.60;3.03;;;180.10;2252.80;;;;;;5013522;28;19905;-81
2022/12/02 10:57:54;;;;;;;5.68;2.38;;;180.10;2252.80;;;;;;5016688;28;20055;-81
2022/12/02 11:00:22;;;;;;;3.67;2.00;;;180.10;2252.80;;;;;;5033337;28;20033;-82
2022/12/02 11:02:52;;;;;;;10.32;3.60;;;180.10;2252.80;;;;;;5015846;28;20493;-83
2022/12/02 11:05:37;;;;;;;16.83;7.50;;;180.10;2252.80;;;;;;5024686;28;20164;-81
2022/12/02 11:08:25;;;;;;;7.22;3.65;;;180.10;2252.80;;;;;;5016035;28;20026;-80
2022/12/02 11:11:13;;;;;;;10.18;4.35;;;180.00;2252.80;;;;;;5016015;28;20481;-84
2022/12/02 11:13:51;;;;;;;9.40;3.25;;;180.10;2252.80;;;;;;5016389;28;20053;-83
2022/12/02 11:16:28;;;;;;;9.20;4.05;;;180.10;2252.80;;;;;;5013571;28;20026;-85
2022/12/02 11:19:03;;;;;;;15.18;5.80;;;180.10;2252.80;;;;;;5014387;28;20072;-86
2022/12/02 11:21:29;;;;;;;6.75;3.00;;;180.10;2252.80;;;;;;5024209;28;20034;-83
2022/12/02 11:24:13;;;;;;;;;;;204.80;2252.80;;;;;;5028645;28;20032;-79
2022/12/02 11:26:58;;;;;;;9.43;5.40;;;180.10;2252.80;;;;;;5012794;28;19928;-79
2022/12/02 11:29:28;;;;;;;14.10;6.70;;;180.10;2252.80;;;;;;5030128;28;20025;-79
2022/12/02 11:32:15;;;;;;;13.13;6.55;;;204.80;2252.80;;;;;;5014005;28;20017;-79
2022/12/02 11:34:50;;;;;;;19.60;10.18;;;204.80;2252.80;;;;;;5013422;28;20034;-82
2022/12/02 11:37:25;;;;;;;12.70;6.00;;;204.80;2252.80;;;;;;5008584;28;20087;-80
2022/12/02 11:39:52;;;;;;;5.78;3.20;;;204.80;2252.80;;;;;;5015483;28;20048;-83
2022/12/02 11:42:23;;;;;;;15.40;7.97;;;204.90;2252.80;;;;;;5033504;28;20504;-81
2022/12/02 11:44:50;;;;;;;13.85;6.55;;;204.90;2252.80;;;;;;5010574;28;20025;-79
2022/12/02 11:47:27;;;;;;;15.70;6.72;;;204.90;2252.80;;;;;;5012301;28;20428;-78
2022/12/02 11:49:53;;;;;;;27.33;11.60;;;204.90;2252.80;;;;;;5011562;28;20018;-77
2022/12/02 11:52:26;;;;;;;13.80;6.22;;;204.80;2252.80;;;;;;5006830;28;20045;-77
2022/12/02 11:55:09;;;;;;;8.85;4.43;;;204.80;2252.80;;;;;;5014227;28;20030;-78
2022/12/02 11:57:56;;;;;;;10.57;4.40;;;204.80;2252.80;;;;;;5007773;28;20117;-76
2022/12/02 12:00:33;;;;;;;27.73;10.85;;;204.90;2252.80;;;;;;5020439;28;20048;-78
2022/12/02 12:03:16;;;;;;;30.85;13.27;;;204.80;2252.80;;;;;;5014140;28;20071;-78
2022/12/02 12:06:06;;;;;;;6.18;3.40;;;204.80;2252.80;;;;;;5014530;28;20042;-77
2022/12/02 12:08:33;;;;;;;15.68;6.28;;;204.90;2252.80;;;;;;5031884;28;20021;-78
2022/12/02 12:11:15;;;;;;;18.70;8.57;;;204.80;2252.80;;;;;;5024334;28;20026;-81
2022/12/02 12:14:12;;;;;;;8.13;3.58;;;204.90;2252.80;;;;;;5026220;28;20106;-78
2022/12/02 12:16:46;;;;;;;18.73;6.32;;;204.80;2252.80;;;;;;5011630;28;20085;-78
2022/12/02 12:19:12;;;;;;;13.63;6.43;;;204.80;2252.80;;;;;;5004081;28;20039;-78
2022/12/02 12:21:44;;;;;;;;;;;204.80;2252.80;;;;;;5018284;28;20832;-78
2022/12/02 12:24:17;;;;;;;7.30;3.42;;;180.10;2252.80;;;;;;5012132;28;19906;-79
2022/12/02 12:26:44;;;;;;;7.10;3.67;;;180.00;2252.80;;;;;;5012053;28;20022;-78
2022/12/02 12:29:10;;;;;;;8.25;4.47;;;180.00;2252.80;;;;;;5014473;28;20091;-77
2022/12/02 12:31:36;;;;;;;;;;;179.90;2252.80;;;;;;5015034;28;20490;-77
2022/12/02 12:34:02;;;;;;;10.18;4.93;;;180.00;2252.80;;;;;;5014554;28;20417;-78
2022/12/02 12:36:27;;;;;;;;;;;180.00;2252.80;;;;;;5022060;28;20034;-78
2022/12/02 12:38:53;;;;;;;12.70;6.75;;;180.10;2252.80;;;;;;5013959;28;19956;-80
2022/12/02 12:41:19;;;;;;;;;;;180.10;2252.80;;;;;;5015513;28;20026;-80
2022/12/02 12:43:44;;;;;;;10.85;5.00;;;204.80;2252.80;;;;;;5026082;28;19909;-81
2022/12/02 12:46:10;;;;;;;;;;;180.10;2252.80;;;;;;5020327;28;20026;-81
2022/12/02 12:48:36;;;;;;;8.48;4.32;;;204.80;2252.80;;;;;;5015880;28;20357;-81
2022/12/02 12:51:01;;;;;;;;;;;204.80;2252.80;;;;;;5010432;28;20522;-79
2022/12/02 12:53:27;;;;;;;21.80;8.27;;;204.80;2252.80;;;;;;5033401;28;19917;-79
2022/12/02 12:55:53;;;;;;;;;;;180.10;2252.80;;;;;;5010799;28;20029;-79